• Join FlightAware (Why Join?)
  • Login
  • US Flag 
07:08PM EDT


 

Airport Tracker/Info


-or-


 

Live Flight TrackerFlight Track Log ✈ SWA2278 ✈ 10-Apr-2013 ✈ KBNA - KBWI

Flight Track Log - Related Links

Times and Time Zones

All times are in EDT time to prevent confusion due to time zone crossing. See the SWA2278 flight status page for this flight to view local times or setup timezone preferences in your user account.

Time Position Orientation Groundspeed Altitude Reporting Facility
EDT Latitude Longitude Course Direction KTS MPH feet Rate Location/Type
01:56PM 36.0500 -86.6333 154° Southeast 233 268 4,500  Level Nashville TRACON
01:57PM 36.0333 -86.5333 102° East 303 349 8,000 2,880 Climbing Nashville TRACON
01:58PM 36.0653 -86.4336 68° East 339 390 10,800 2,700 Climbing Memphis Center
01:59PM 36.1075 -86.3211 65° Northeast 332 382 13,700 2,880 Climbing Memphis Center
02:00PM 36.1514 -86.2031 65° Northeast 356 410 16,600 2,820 Climbing Memphis Center
02:01PM 36.1975 -86.0825 65° Northeast 375 432 19,400 2,400 Climbing Memphis Center
02:02PM 36.2514 -85.9589 62° Northeast 397 457 21,500 2,160 Climbing Memphis Center
02:04PM 36.3367 -85.7672 61° Northeast 427 491 25,100 1,920 Climbing Indianapolis Center
02:05PM 36.3983 -85.6383 59° Northeast 433 498 26,700 1,620 Climbing Indianapolis Center
02:06PM 36.4756 -85.4756 59° Northeast 455 524 28,500 1,560 Climbing Indianapolis Center
02:07PM 36.5406 -85.3386 59° Northeast 457 526 30,000 1,380 Climbing Indianapolis Center
02:08PM 36.6061 -85.1958 60° Northeast 467 537 31,400 1,440 Climbing Indianapolis Center
02:09PM 36.6567 -85.0411 68° East 479 551 33,000 1,680 Climbing Indianapolis Center
02:10PM 36.7033 -84.8919 69° East 465 535 34,900 1,320 Climbing Indianapolis Center
02:11PM 36.7492 -84.7392 69° East 467 537 35,800 900 Climbing Indianapolis Center
02:12PM 36.7956 -84.5867 69° East 468 539 36,800 480 Climbing Indianapolis Center
02:13PM 36.8464 -84.4167 69° East 469 540 36,900  Climbing Indianapolis Center
02:14PM 36.8919 -84.2658 69° East 460 529 36,900  Level Indianapolis Center
02:15PM 36.9375 -84.1153 69° East 457 526 36,900  Level Indianapolis Center
02:16PM 36.9822 -83.9633 70° East 461 531 36,900  Level Indianapolis Center
02:17PM 37.0269 -83.8136 69° East 458 527 36,900  Level Indianapolis Center
02:18PM 37.0719 -83.6611 70° East 462 532 36,900  Level Indianapolis Center
02:20PM 37.1081 -83.4778 76° East 465 535 36,900  Level Indianapolis Center
02:21PM 37.1339 -83.3183 78° East 464 534 36,900  Level Indianapolis Center
02:22PM 37.1606 -83.1617 78° East 459 528 36,900  Level Indianapolis Center
02:23PM 37.1917 -83.0083 76° East 454 522 36,900  Level Indianapolis Center
02:24PM 37.2397 -82.8597 68° East 454 522 36,900  Level Indianapolis Center
02:25PM 37.2858 -82.7097 69° East 456 525 36,900  Level Indianapolis Center
02:26PM 37.3325 -82.5603 69° East 458 527 36,900  Level Indianapolis Center
02:27PM 37.3775 -82.4094 69° East 459 528 36,900  Level Indianapolis Center
02:28PM 37.4308 -82.2336 69° East 459 528 36,900  Level Indianapolis Center
02:29PM 37.4764 -82.0836 69° East 459 528 36,900  Level Indianapolis Center
02:30PM 37.5214 -81.9311 70° East 462 532 36,900  Level Indianapolis Center
02:31PM 37.5672 -81.7783 69° East 465 535 36,900  Level Indianapolis Center
02:32PM 37.6122 -81.6253 70° East 466 536 36,900  Level Indianapolis Center
02:33PM 37.6625 -81.4528 70° East 470 541 36,900  Level Indianapolis Center
02:34PM 37.7050 -81.3047 70° East 466 536 36,900  Level Indianapolis Center
02:35PM 37.7483 -81.1536 70° East 469 540 36,900  Level Indianapolis Center
02:36PM 37.7878 -81.0131 70° East 461 531 36,900  Level Washington Center
02:37PM 37.8344 -80.8561 69° East 461 531 36,900  Level Washington Center
02:38PM 37.8786 -80.7064 69° East 461 531 36,900  Level Washington Center
02:39PM 37.9206 -80.5486 71° East 461 531 36,900  Level Washington Center
02:40PM 37.9617 -80.4119 69° East 461 531 36,900  Level Washington Center
02:41PM 38.0053 -80.2592 70° East 461 531 36,900  Level Washington Center
02:42PM 38.0489 -80.1036 70° East 461 531 36,900  Level Washington Center
02:43PM 38.0919 -79.9506 70° East 461 531 36,900  Level Washington Center
02:44PM 38.1397 -79.7789 70° East 461 531 36,900  Level Washington Center
02:45PM 38.1828 -79.6228 71° East 461 531 36,900 -360 Level Washington Center
02:46PM 38.2256 -79.4667 71° East 461 531 36,200 -2,100 Descending Washington Center
02:47PM 38.2681 -79.3075 71° East 461 531 32,800 -3,420 Descending Washington Center
02:48PM 38.3103 -79.1508 71° East 461 531 29,400 -2,580 Descending Washington Center
02:49PM 38.3475 -79.0150 71° East 461 531 27,700 -1,200 Descending Washington Center
02:50PM 38.3853 -78.8578 73° East 431 496 27,000 -360 Descending Washington Center
02:51PM 38.4225 -78.7161 71° East 415 478 27,000 -60 Level Washington Center
02:52PM 38.4594 -78.5772 71° East 439 505 26,900 -60 Descending Washington Center
02:53PM 38.4961 -78.4381 71° East 451 519 26,900 -300 Level Washington Center
02:54PM 38.5419 -78.2542 72° East 451 519 26,300 -1,620 Descending Washington Center
02:55PM 38.5761 -78.1197 72° East 451 519 23,700 -2,580 Descending Washington Center
02:56PM 38.6169 -77.9592 72° East 437 503 21,200 -2,400 Descending Washington Center
02:57PM 38.6425 -77.8297 76° East 422 486 19,000 -1,200 Descending Washington Center
02:58PM 38.6536 -77.6653 85° East 422 486 18,900 -360 Descending Washington Center
02:59PM 38.6622 -77.5300 85° East 422 486 18,300 -1,500 Descending Washington Center
03:00PM 38.6686 -77.3864 87° East 416 479 16,000 -1,380 Descending Washington Center
03:01PM 38.6769 -77.2403 86° East 410 472 15,600 -1,440 Descending Washington Center
03:02PM 38.6850 -77.0969 86° East 404 465 13,200 -2,280 Descending Washington Center
03:03PM 38.6931 -76.9561 86° East 398 458 11,100 -1,680 Descending Washington Center
03:04PM 38.7000 -76.8167 86° East 357 411 10,000 -1,080 Descending Potomac TRACON
03:05PM 38.7167 -76.7167 78° East 330 380 9,100 -1,140 Descending Potomac TRACON
03:06PM 38.7667 -76.6167 57° Northeast 314 361 7,900 -1,440 Descending Potomac TRACON
03:07PM 38.8000 -76.5333 63° Northeast 296 341 6,400 -1,680 Descending Potomac TRACON
03:08PM 38.8833 -76.5333 360° North 286 329 4,600 -1,260 Descending Potomac TRACON
03:09PM 38.9500 -76.5667 339° North 265 305 3,900 -1,080 Descending Potomac TRACON
03:10PM 39.0333 -76.5833 351° North 264 304 2,500 -1,200 Descending Potomac TRACON
03:11PM 39.1000 -76.6167 339° North 248 285 1,400 -960 Descending Potomac TRACON
03:12PM 39.1500 -76.6500 333° Northwest 174 200 600 -840 Descending Potomac TRACON
03:14PM 39.1667 -76.6667 339° North  Level FlightAware Approximate
03:21PM 39.1754 -76.6683 339° North  Level Estimated
03:22PM 39.1754 -76.6683 339° North  Level Estimated
03:23PM 39.1754 -76.6683 339° North  Level Estimated